Overview Statistics Trail Chart Weather Telemetry Raw packets
 

This is the latest recevied weather packets stored in our database for station/object W5CDN. If no packets are shown the sender has not sent any weather packets the latest 10 day(s).

<< 6 7 8 9 10 11 12 >>
Time Temp. Humidity Pressure Rain* Wind** Luminosity Snow
1788381236 31.11° C 64% 1011.7 hPa 0 mm - - -
1788380936 30.56° C 65% 1012 hPa 0 mm - - -
1788380636 30.56° C 66% 1011.9 hPa 0 mm - - -
1788380336 30.56° C 66% 1012.1 hPa 0 mm - - -
1788380036 30° C 66% 1012 hPa 0 mm - - -
1788379736 31.11° C 64% 1012 hPa 0 mm - - -
1788379436 31.11° C 63% 1012.1 hPa 0 mm - - -
1788379136 31.67° C 62% 1012.1 hPa 0 mm - - -
1788378836 32.22° C 62% 1011.8 hPa 0 mm - - -
1788378536 31.11° C 62% 1012.1 hPa 0 mm - - -
1788378236 32.22° C 62% 1012.2 hPa 0 mm - - -
1788377936 32.78° C 61% 1012 hPa 0 mm - - -
1788377636 32.78° C 61% 1012.1 hPa 0 mm - - -
1788377336 33.33° C 59% 1012.1 hPa 0 mm - - -
1788377036 32.78° C 61% 1012 hPa 0 mm - - -
1788376736 32.22° C 61% 1012.3 hPa 0 mm - - -
1788376436 31.67° C 62% 1012.2 hPa 0 mm - - -
1788376136 32.22° C 62% 1012.3 hPa 0 mm - - -
1788375836 31.67° C 63% 1012.2 hPa 0 mm - - -
1788375536 31.67° C 62% 1012.5 hPa 0 mm - - -
1788375236 31.67° C 62% 1012.4 hPa 0 mm - - -
1788374936 31.11° C 65% 1012.6 hPa 0 mm - - -
1788374636 31.67° C 63% 1012.4 hPa 0 mm - - -
1788374336 31.11° C 64% 1012.7 hPa 0 mm - - -
1788374057 30.56° C 65% 1012.9 hPa 0 mm - - -

* Rain latest hour (hover to see other rain measurements)
** Current wind speed in m/s (hover to see current wind gust speed)